sensor_id;sensor_type;location;lat;lon;timestamp;P1;durP1;ratioP1;P2;durP2;ratioP2
72427;SDS011;60419;48.880;18.036;2023-03-29T00:02:44;13.57;;;7.22;;
72427;SDS011;60419;48.880;18.036;2023-03-29T00:05:32;13.38;;;5.10;;
72427;SDS011;60419;48.880;18.036;2023-03-29T00:08:19;8.38;;;5.50;;
72427;SDS011;60419;48.880;18.036;2023-03-29T00:11:06;9.45;;;4.70;;
72427;SDS011;60419;48.880;18.036;2023-03-29T00:13:51;9.07;;;4.65;;
72427;SDS011;60419;48.880;18.036;2023-03-29T00:16:37;9.30;;;4.55;;
72427;SDS011;60419;48.880;18.036;2023-03-29T00:19:23;6.88;;;4.30;;
72427;SDS011;60419;48.880;18.036;2023-03-29T00:22:08;9.00;;;4.32;;
72427;SDS011;60419;48.880;18.036;2023-03-29T00:24:54;8.27;;;4.38;;
72427;SDS011;60419;48.880;18.036;2023-03-29T00:27:39;8.95;;;4.70;;
72427;SDS011;60419;48.880;18.036;2023-03-29T00:30:25;8.82;;;4.55;;
72427;SDS011;60419;48.880;18.036;2023-03-29T00:33:10;8.60;;;4.00;;
72427;SDS011;60419;48.880;18.036;2023-03-29T00:35:55;9.18;;;4.20;;
72427;SDS011;60419;48.880;18.036;2023-03-29T00:38:41;7.75;;;3.80;;
72427;SDS011;60419;48.880;18.036;2023-03-29T00:41:26;6.60;;;3.60;;
72427;SDS011;60419;48.880;18.036;2023-03-29T00:47:41;9.88;;;4.88;;
72427;SDS011;60419;48.880;18.036;2023-03-29T00:50:39;10.23;;;5.43;;
72427;SDS011;60419;48.880;18.036;2023-03-29T00:53:31;10.48;;;4.72;;
72427;SDS011;60419;48.880;18.036;2023-03-29T00:56:26;14.90;;;6.50;;
72427;SDS011;60419;48.880;18.036;2023-03-29T00:59:19;13.43;;;7.32;;
72427;SDS011;60419;48.880;18.036;2023-03-29T01:02:08;14.77;;;7.47;;
72427;SDS011;60419;48.880;18.036;2023-03-29T01:04:56;13.80;;;7.38;;
72427;SDS011;60419;48.880;18.036;2023-03-29T01:07:49;12.38;;;5.97;;
72427;SDS011;60419;48.880;18.036;2023-03-29T01:11:03;8.27;;;4.78;;
72427;SDS011;60419;48.880;18.036;2023-03-29T01:13:54;9.57;;;4.72;;
72427;SDS011;60419;48.880;18.036;2023-03-29T01:16:44;9.20;;;4.55;;
72427;SDS011;60419;48.880;18.036;2023-03-29T01:19:35;7.53;;;4.20;;
72427;SDS011;60419;48.880;18.036;2023-03-29T01:22:33;9.73;;;4.70;;
72427;SDS011;60419;48.880;18.036;2023-03-29T01:28:33;18.92;;;8.13;;
72427;SDS011;60419;48.880;18.036;2023-03-29T01:31:24;12.13;;;6.45;;
72427;SDS011;60419;48.880;18.036;2023-03-29T01:34:17;13.18;;;7.30;;
72427;SDS011;60419;48.880;18.036;2023-03-29T01:39:57;15.55;;;7.70;;
72427;SDS011;60419;48.880;18.036;2023-03-29T01:43:08;15.13;;;7.75;;
72427;SDS011;60419;48.880;18.036;2023-03-29T01:48:53;13.43;;;7.05;;
72427;SDS011;60419;48.880;18.036;2023-03-29T01:51:45;13.75;;;7.07;;
72427;SDS011;60419;48.880;18.036;2023-03-29T01:54:38;16.73;;;7.50;;
72427;SDS011;60419;48.880;18.036;2023-03-29T01:57:35;12.75;;;7.03;;
72427;SDS011;60419;48.880;18.036;2023-03-29T02:00:24;10.93;;;6.65;;
72427;SDS011;60419;48.880;18.036;2023-03-29T02:03:11;12.65;;;6.82;;
72427;SDS011;60419;48.880;18.036;2023-03-29T02:06:01;12.02;;;7.00;;
72427;SDS011;60419;48.880;18.036;2023-03-29T02:08:47;12.57;;;6.93;;
72427;SDS011;60419;48.880;18.036;2023-03-29T02:11:34;11.07;;;5.78;;
72427;SDS011;60419;48.880;18.036;2023-03-29T02:14:20;9.60;;;5.53;;
72427;SDS011;60419;48.880;18.036;2023-03-29T02:17:39;12.25;;;5.93;;
72427;SDS011;60419;48.880;18.036;2023-03-29T02:26:05;7.93;;;5.15;;
72427;SDS011;60419;48.880;18.036;2023-03-29T02:28:52;10.45;;;5.32;;
72427;SDS011;60419;48.880;18.036;2023-03-29T02:35:19;10.45;;;5.55;;
72427;SDS011;60419;48.880;18.036;2023-03-29T02:38:10;10.38;;;5.68;;
72427;SDS011;60419;48.880;18.036;2023-03-29T02:40:58;9.63;;;5.68;;
72427;SDS011;60419;48.880;18.036;2023-03-29T02:43:45;12.25;;;4.82;;
72427;SDS011;60419;48.880;18.036;2023-03-29T02:46:32;9.25;;;4.97;;
72427;SDS011;60419;48.880;18.036;2023-03-29T02:49:18;11.32;;;4.68;;
72427;SDS011;60419;48.880;18.036;2023-03-29T02:52:05;9.70;;;4.75;;
72427;SDS011;60419;48.880;18.036;2023-03-29T02:54:55;14.23;;;5.68;;
72427;SDS011;60419;48.880;18.036;2023-03-29T02:57:41;9.57;;;4.85;;
72427;SDS011;60419;48.880;18.036;2023-03-29T03:00:27;8.20;;;4.57;;
72427;SDS011;60419;48.880;18.036;2023-03-29T03:03:13;8.85;;;4.80;;
72427;SDS011;60419;48.880;18.036;2023-03-29T03:06:01;8.60;;;4.68;;
72427;SDS011;60419;48.880;18.036;2023-03-29T03:08:47;10.15;;;5.22;;
72427;SDS011;60419;48.880;18.036;2023-03-29T03:11:32;10.98;;;5.03;;
72427;SDS011;60419;48.880;18.036;2023-03-29T03:14:18;8.93;;;5.38;;
72427;SDS011;60419;48.880;18.036;2023-03-29T03:17:06;9.10;;;5.40;;
72427;SDS011;60419;48.880;18.036;2023-03-29T03:19:52;11.85;;;5.43;;
72427;SDS011;60419;48.880;18.036;2023-03-29T03:22:41;10.02;;;5.53;;
72427;SDS011;60419;48.880;18.036;2023-03-29T03:25:29;8.90;;;4.97;;
72427;SDS011;60419;48.880;18.036;2023-03-29T03:28:15;10.30;;;5.00;;
72427;SDS011;60419;48.880;18.036;2023-03-29T03:31:00;9.27;;;4.95;;
72427;SDS011;60419;48.880;18.036;2023-03-29T03:33:46;9.80;;;5.95;;
72427;SDS011;60419;48.880;18.036;2023-03-29T03:36:32;9.15;;;5.15;;
72427;SDS011;60419;48.880;18.036;2023-03-29T03:39:18;10.52;;;5.68;;
72427;SDS011;60419;48.880;18.036;2023-03-29T03:42:03;8.88;;;5.07;;
72427;SDS011;60419;48.880;18.036;2023-03-29T03:44:49;10.68;;;5.78;;
72427;SDS011;60419;48.880;18.036;2023-03-29T03:47:35;10.27;;;5.25;;
72427;SDS011;60419;48.880;18.036;2023-03-29T03:50:21;12.40;;;5.63;;
72427;SDS011;60419;48.880;18.036;2023-03-29T03:53:07;11.43;;;5.88;;
72427;SDS011;60419;48.880;18.036;2023-03-29T03:55:53;10.65;;;5.80;;
72427;SDS011;60419;48.880;18.036;2023-03-29T03:58:39;10.20;;;5.50;;
72427;SDS011;60419;48.880;18.036;2023-03-29T04:01:25;10.75;;;5.53;;
72427;SDS011;60419;48.880;18.036;2023-03-29T04:04:12;10.38;;;5.68;;
72427;SDS011;60419;48.880;18.036;2023-03-29T04:06:58;11.85;;;6.20;;
72427;SDS011;60419;48.880;18.036;2023-03-29T04:09:46;13.25;;;7.28;;
72427;SDS011;60419;48.880;18.036;2023-03-29T04:12:31;8.57;;;5.07;;
72427;SDS011;60419;48.880;18.036;2023-03-29T04:15:17;10.07;;;4.95;;
72427;SDS011;60419;48.880;18.036;2023-03-29T04:18:04;10.25;;;5.55;;
72427;SDS011;60419;48.880;18.036;2023-03-29T04:20:51;13.50;;;6.72;;
72427;SDS011;60419;48.880;18.036;2023-03-29T04:23:36;12.82;;;6.80;;
72427;SDS011;60419;48.880;18.036;2023-03-29T04:26:21;10.55;;;6.25;;
72427;SDS011;60419;48.880;18.036;2023-03-29T04:29:07;10.27;;;5.53;;
72427;SDS011;60419;48.880;18.036;2023-03-29T04:31:53;13.57;;;7.13;;
72427;SDS011;60419;48.880;18.036;2023-03-29T04:34:38;7.90;;;5.30;;
72427;SDS011;60419;48.880;18.036;2023-03-29T04:37:23;10.65;;;5.40;;
72427;SDS011;60419;48.880;18.036;2023-03-29T04:40:09;10.98;;;5.90;;
72427;SDS011;60419;48.880;18.036;2023-03-29T04:42:58;13.13;;;6.95;;
72427;SDS011;60419;48.880;18.036;2023-03-29T04:45:44;19.67;;;5.93;;
72427;SDS011;60419;48.880;18.036;2023-03-29T04:48:30;15.07;;;7.15;;
72427;SDS011;60419;48.880;18.036;2023-03-29T04:51:16;22.85;;;10.95;;
72427;SDS011;60419;48.880;18.036;2023-03-29T04:54:02;24.48;;;12.65;;
72427;SDS011;60419;48.880;18.036;2023-03-29T04:56:47;20.40;;;9.65;;
72427;SDS011;60419;48.880;18.036;2023-03-29T04:59:33;17.10;;;8.77;;
72427;SDS011;60419;48.880;18.036;2023-03-29T05:02:18;12.70;;;6.97;;
72427;SDS011;60419;48.880;18.036;2023-03-29T05:05:05;15.68;;;7.63;;
72427;SDS011;60419;48.880;18.036;2023-03-29T05:07:50;12.57;;;6.90;;
72427;SDS011;60419;48.880;18.036;2023-03-29T05:10:36;13.48;;;7.53;;
72427;SDS011;60419;48.880;18.036;2023-03-29T05:13:21;16.13;;;7.50;;
72427;SDS011;60419;48.880;18.036;2023-03-29T05:16:06;15.18;;;7.40;;
72427;SDS011;60419;48.880;18.036;2023-03-29T05:18:52;11.98;;;6.80;;
72427;SDS011;60419;48.880;18.036;2023-03-29T05:21:39;15.82;;;6.82;;
72427;SDS011;60419;48.880;18.036;2023-03-29T05:24:24;14.48;;;7.15;;
72427;SDS011;60419;48.880;18.036;2023-03-29T05:27:10;13.77;;;7.22;;
72427;SDS011;60419;48.880;18.036;2023-03-29T05:29:55;15.88;;;7.50;;
72427;SDS011;60419;48.880;18.036;2023-03-29T05:32:41;13.60;;;7.15;;
72427;SDS011;60419;48.880;18.036;2023-03-29T05:35:26;16.65;;;7.22;;
72427;SDS011;60419;48.880;18.036;2023-03-29T05:38:12;15.77;;;7.10;;
72427;SDS011;60419;48.880;18.036;2023-03-29T05:40:58;17.95;;;7.15;;
72427;SDS011;60419;48.880;18.036;2023-03-29T05:43:44;13.02;;;6.53;;
72427;SDS011;60419;48.880;18.036;2023-03-29T05:46:30;17.58;;;7.85;;
72427;SDS011;60419;48.880;18.036;2023-03-29T05:49:15;13.75;;;6.97;;
72427;SDS011;60419;48.880;18.036;2023-03-29T05:52:01;14.98;;;7.30;;
72427;SDS011;60419;48.880;18.036;2023-03-29T05:54:46;13.60;;;7.70;;
72427;SDS011;60419;48.880;18.036;2023-03-29T05:57:33;15.45;;;8.18;;
72427;SDS011;60419;48.880;18.036;2023-03-29T06:00:19;13.65;;;7.45;;
72427;SDS011;60419;48.880;18.036;2023-03-29T06:03:13;12.43;;;7.50;;
72427;SDS011;60419;48.880;18.036;2023-03-29T06:06:03;12.07;;;7.15;;
72427;SDS011;60419;48.880;18.036;2023-03-29T06:08:49;17.58;;;8.20;;
72427;SDS011;60419;48.880;18.036;2023-03-29T06:11:35;14.63;;;8.38;;
72427;SDS011;60419;48.880;18.036;2023-03-29T06:14:20;13.60;;;7.80;;
72427;SDS011;60419;48.880;18.036;2023-03-29T06:17:07;13.55;;;7.18;;
72427;SDS011;60419;48.880;18.036;2023-03-29T06:19:52;12.40;;;6.47;;
72427;SDS011;60419;48.880;18.036;2023-03-29T06:22:38;14.07;;;6.07;;
72427;SDS011;60419;48.880;18.036;2023-03-29T06:25:25;10.45;;;6.03;;
72427;SDS011;60419;48.880;18.036;2023-03-29T06:28:11;12.25;;;6.88;;
72427;SDS011;60419;48.880;18.036;2023-03-29T06:30:57;15.80;;;6.65;;
72427;SDS011;60419;48.880;18.036;2023-03-29T06:33:46;12.60;;;6.00;;
72427;SDS011;60419;48.880;18.036;2023-03-29T06:36:31;11.90;;;5.43;;
72427;SDS011;60419;48.880;18.036;2023-03-29T06:39:18;12.63;;;6.03;;
72427;SDS011;60419;48.880;18.036;2023-03-29T06:42:03;11.60;;;5.95;;
72427;SDS011;60419;48.880;18.036;2023-03-29T06:44:50;9.98;;;5.65;;
72427;SDS011;60419;48.880;18.036;2023-03-29T06:47:36;12.48;;;6.25;;
72427;SDS011;60419;48.880;18.036;2023-03-29T06:50:21;14.50;;;5.70;;
72427;SDS011;60419;48.880;18.036;2023-03-29T06:53:07;9.65;;;5.55;;
72427;SDS011;60419;48.880;18.036;2023-03-29T06:55:53;10.90;;;5.70;;
72427;SDS011;60419;48.880;18.036;2023-03-29T06:58:39;8.63;;;5.25;;
72427;SDS011;60419;48.880;18.036;2023-03-29T07:01:24;10.48;;;5.28;;
72427;SDS011;60419;48.880;18.036;2023-03-29T07:04:10;11.75;;;5.60;;
72427;SDS011;60419;48.880;18.036;2023-03-29T07:06:56;9.63;;;5.07;;
72427;SDS011;60419;48.880;18.036;2023-03-29T07:09:45;12.77;;;5.63;;
72427;SDS011;60419;48.880;18.036;2023-03-29T07:12:37;10.75;;;5.95;;
72427;SDS011;60419;48.880;18.036;2023-03-29T07:15:23;11.70;;;6.03;;
72427;SDS011;60419;48.880;18.036;2023-03-29T07:18:09;13.05;;;5.70;;
72427;SDS011;60419;48.880;18.036;2023-03-29T07:20:56;10.75;;;5.75;;
72427;SDS011;60419;48.880;18.036;2023-03-29T07:23:41;10.82;;;5.68;;
72427;SDS011;60419;48.880;18.036;2023-03-29T07:26:27;9.05;;;5.45;;
72427;SDS011;60419;48.880;18.036;2023-03-29T07:29:14;12.23;;;5.90;;
72427;SDS011;60419;48.880;18.036;2023-03-29T07:32:00;11.52;;;5.80;;
72427;SDS011;60419;48.880;18.036;2023-03-29T07:34:45;10.40;;;5.38;;
72427;SDS011;60419;48.880;18.036;2023-03-29T07:37:32;12.63;;;6.18;;
72427;SDS011;60419;48.880;18.036;2023-03-29T07:40:19;10.70;;;5.38;;
72427;SDS011;60419;48.880;18.036;2023-03-29T07:43:07;11.23;;;5.60;;
72427;SDS011;60419;48.880;18.036;2023-03-29T07:45:54;10.77;;;5.00;;
72427;SDS011;60419;48.880;18.036;2023-03-29T07:48:42;10.25;;;5.90;;
72427;SDS011;60419;48.880;18.036;2023-03-29T07:51:28;10.82;;;5.15;;
72427;SDS011;60419;48.880;18.036;2023-03-29T07:54:13;10.90;;;5.15;;
72427;SDS011;60419;48.880;18.036;2023-03-29T07:56:59;10.00;;;5.28;;
72427;SDS011;60419;48.880;18.036;2023-03-29T07:59:44;9.70;;;4.55;;
72427;SDS011;60419;48.880;18.036;2023-03-29T08:02:30;10.40;;;4.97;;
72427;SDS011;60419;48.880;18.036;2023-03-29T08:05:16;11.65;;;5.85;;
72427;SDS011;60419;48.880;18.036;2023-03-29T08:08:01;11.40;;;5.20;;
72427;SDS011;60419;48.880;18.036;2023-03-29T08:10:47;11.70;;;4.90;;
72427;SDS011;60419;48.880;18.036;2023-03-29T08:13:32;11.30;;;4.70;;
72427;SDS011;60419;48.880;18.036;2023-03-29T08:16:17;9.20;;;4.57;;
72427;SDS011;60419;48.880;18.036;2023-03-29T08:19:03;10.05;;;5.05;;
72427;SDS011;60419;48.880;18.036;2023-03-29T08:21:48;8.48;;;4.68;;
72427;SDS011;60419;48.880;18.036;2023-03-29T08:24:33;9.60;;;4.78;;
72427;SDS011;60419;48.880;18.036;2023-03-29T08:27:19;8.98;;;4.38;;
72427;SDS011;60419;48.880;18.036;2023-03-29T08:30:05;8.75;;;4.32;;
72427;SDS011;60419;48.880;18.036;2023-03-29T08:32:52;7.57;;;3.30;;
72427;SDS011;60419;48.880;18.036;2023-03-29T08:35:37;7.40;;;4.03;;
72427;SDS011;60419;48.880;18.036;2023-03-29T08:38:22;8.07;;;3.72;;
72427;SDS011;60419;48.880;18.036;2023-03-29T08:41:31;6.60;;;3.70;;
72427;SDS011;60419;48.880;18.036;2023-03-29T08:47:42;4.55;;;2.55;;
72427;SDS011;60419;48.880;18.036;2023-03-29T08:50:44;6.60;;;3.08;;
72427;SDS011;60419;48.880;18.036;2023-03-29T08:53:33;6.47;;;2.92;;
72427;SDS011;60419;48.880;18.036;2023-03-29T08:56:23;6.45;;;2.80;;
72427;SDS011;60419;48.880;18.036;2023-03-29T08:59:19;6.03;;;2.88;;
72427;SDS011;60419;48.880;18.036;2023-03-29T09:02:22;4.95;;;2.63;;
72427;SDS011;60419;48.880;18.036;2023-03-29T09:08:11;6.40;;;2.70;;
72427;SDS011;60419;48.880;18.036;2023-03-29T09:22:50;5.93;;;3.03;;
72427;SDS011;60419;48.880;18.036;2023-03-29T09:25:59;6.80;;;3.25;;
72427;SDS011;60419;48.880;18.036;2023-03-29T09:31:49;6.45;;;3.10;;
72427;SDS011;60419;48.880;18.036;2023-03-29T09:34:40;8.23;;;3.47;;
72427;SDS011;60419;48.880;18.036;2023-03-29T09:37:31;7.80;;;3.22;;
72427;SDS011;60419;48.880;18.036;2023-03-29T09:40:19;5.03;;;2.80;;
72427;SDS011;60419;48.880;18.036;2023-03-29T09:43:12;6.55;;;3.17;;
72427;SDS011;60419;48.880;18.036;2023-03-29T09:46:03;5.72;;;2.85;;
72427;SDS011;60419;48.880;18.036;2023-03-29T09:48:55;4.95;;;2.72;;
72427;SDS011;60419;48.880;18.036;2023-03-29T10:05:15;5.13;;;1.77;;
72427;SDS011;60419;48.880;18.036;2023-03-29T10:08:00;3.80;;;1.83;;
72427;SDS011;60419;48.880;18.036;2023-03-29T10:10:59;3.60;;;1.70;;
72427;SDS011;60419;48.880;18.036;2023-03-29T10:13:49;4.32;;;1.70;;
72427;SDS011;60419;48.880;18.036;2023-03-29T10:19:29;5.97;;;1.70;;
72427;SDS011;60419;48.880;18.036;2023-03-29T10:22:22;3.67;;;1.70;;
72427;SDS011;60419;48.880;18.036;2023-03-29T10:25:12;4.90;;;1.90;;
72427;SDS011;60419;48.880;18.036;2023-03-29T10:28:03;4.35;;;2.17;;
72427;SDS011;60419;48.880;18.036;2023-03-29T10:30:54;3.83;;;2.03;;
72427;SDS011;60419;48.880;18.036;2023-03-29T10:33:41;5.40;;;2.10;;
72427;SDS011;60419;48.880;18.036;2023-03-29T10:36:27;4.43;;;2.28;;
72427;SDS011;60419;48.880;18.036;2023-03-29T10:39:13;3.72;;;2.13;;
72427;SDS011;60419;48.880;18.036;2023-03-29T10:42:00;5.05;;;2.47;;
72427;SDS011;60419;48.880;18.036;2023-03-29T10:44:55;4.38;;;2.33;;
72427;SDS011;60419;48.880;18.036;2023-03-29T10:47:43;5.55;;;2.60;;
72427;SDS011;60419;48.880;18.036;2023-03-29T10:50:33;4.32;;;2.20;;
72427;SDS011;60419;48.880;18.036;2023-03-29T10:53:26;5.75;;;2.72;;
72427;SDS011;60419;48.880;18.036;2023-03-29T11:01:53;4.38;;;2.10;;
72427;SDS011;60419;48.880;18.036;2023-03-29T11:07:45;5.50;;;2.30;;
72427;SDS011;60419;48.880;18.036;2023-03-29T11:19:56;4.68;;;2.35;;
72427;SDS011;60419;48.880;18.036;2023-03-29T11:26:17;5.07;;;2.10;;
72427;SDS011;60419;48.880;18.036;2023-03-29T11:29:17;4.57;;;1.90;;
72427;SDS011;60419;48.880;18.036;2023-03-29T11:32:11;7.43;;;2.80;;
72427;SDS011;60419;48.880;18.036;2023-03-29T11:35:49;6.53;;;2.47;;
72427;SDS011;60419;48.880;18.036;2023-03-29T11:38:38;3.78;;;2.08;;
72427;SDS011;60419;48.880;18.036;2023-03-29T11:41:34;7.37;;;2.30;;
72427;SDS011;60419;48.880;18.036;2023-03-29T11:47:14;4.28;;;2.20;;
72427;SDS011;60419;48.880;18.036;2023-03-29T11:50:17;5.20;;;2.55;;
72427;SDS011;60419;48.880;18.036;2023-03-29T11:53:07;5.35;;;2.08;;
72427;SDS011;60419;48.880;18.036;2023-03-29T11:56:11;5.55;;;2.60;;
72427;SDS011;60419;48.880;18.036;2023-03-29T11:59:04;8.85;;;2.85;;
72427;SDS011;60419;48.880;18.036;2023-03-29T12:02:15;5.10;;;2.90;;
72427;SDS011;60419;48.880;18.036;2023-03-29T12:05:06;6.18;;;3.22;;
72427;SDS011;60419;48.880;18.036;2023-03-29T12:11:10;8.15;;;3.20;;
72427;SDS011;60419;48.880;18.036;2023-03-29T12:14:10;6.20;;;2.65;;
72427;SDS011;60419;48.880;18.036;2023-03-29T12:17:02;6.65;;;2.70;;
72427;SDS011;60419;48.880;18.036;2023-03-29T12:20:04;6.20;;;2.97;;
72427;SDS011;60419;48.880;18.036;2023-03-29T12:22:50;7.72;;;3.00;;
72427;SDS011;60419;48.880;18.036;2023-03-29T12:37:54;5.35;;;2.60;;
72427;SDS011;60419;48.880;18.036;2023-03-29T12:40:46;4.82;;;2.35;;
72427;SDS011;60419;48.880;18.036;2023-03-29T12:43:38;5.13;;;2.28;;
72427;SDS011;60419;48.880;18.036;2023-03-29T12:46:30;15.57;;;2.90;;
72427;SDS011;60419;48.880;18.036;2023-03-29T12:49:25;5.97;;;2.40;;
72427;SDS011;60419;48.880;18.036;2023-03-29T12:52:24;5.57;;;2.38;;
72427;SDS011;60419;48.880;18.036;2023-03-29T12:58:25;7.32;;;2.97;;
72427;SDS011;60419;48.880;18.036;2023-03-29T13:01:22;6.57;;;2.90;;
72427;SDS011;60419;48.880;18.036;2023-03-29T13:04:12;4.25;;;2.70;;
72427;SDS011;60419;48.880;18.036;2023-03-29T13:07:09;5.05;;;2.95;;
72427;SDS011;60419;48.880;18.036;2023-03-29T13:13:28;4.07;;;2.65;;
72427;SDS011;60419;48.880;18.036;2023-03-29T13:16:19;4.95;;;2.90;;
72427;SDS011;60419;48.880;18.036;2023-03-29T13:22:33;5.43;;;3.08;;
72427;SDS011;60419;48.880;18.036;2023-03-29T13:41:05;5.70;;;3.50;;
72427;SDS011;60419;48.880;18.036;2023-03-29T13:44:37;6.95;;;3.72;;
72427;SDS011;60419;48.880;18.036;2023-03-29T13:50:18;8.40;;;3.30;;
72427;SDS011;60419;48.880;18.036;2023-03-29T13:53:14;6.45;;;3.20;;
72427;SDS011;60419;48.880;18.036;2023-03-29T13:57:08;5.32;;;3.15;;
72427;SDS011;60419;48.880;18.036;2023-03-29T13:59:56;6.18;;;3.10;;
72427;SDS011;60419;48.880;18.036;2023-03-29T14:03:06;5.95;;;3.80;;
72427;SDS011;60419;48.880;18.036;2023-03-29T14:05:57;5.78;;;3.20;;
72427;SDS011;60419;48.880;18.036;2023-03-29T14:08:45;7.30;;;3.63;;
72427;SDS011;60419;48.880;18.036;2023-03-29T14:11:33;7.95;;;3.95;;
72427;SDS011;60419;48.880;18.036;2023-03-29T14:14:20;7.60;;;3.15;;
72427;SDS011;60419;48.880;18.036;2023-03-29T14:17:13;7.22;;;3.63;;
72427;SDS011;60419;48.880;18.036;2023-03-29T14:20:03;7.72;;;3.90;;
72427;SDS011;60419;48.880;18.036;2023-03-29T14:22:53;6.50;;;3.63;;
72427;SDS011;60419;48.880;18.036;2023-03-29T14:25:38;6.65;;;3.08;;
72427;SDS011;60419;48.880;18.036;2023-03-29T14:28:25;6.15;;;3.17;;
72427;SDS011;60419;48.880;18.036;2023-03-29T14:31:22;9.65;;;3.42;;
72427;SDS011;60419;48.880;18.036;2023-03-29T14:34:11;6.93;;;3.25;;
72427;SDS011;60419;48.880;18.036;2023-03-29T14:36:58;8.20;;;3.70;;
72427;SDS011;60419;48.880;18.036;2023-03-29T14:39:44;5.38;;;3.22;;
72427;SDS011;60419;48.880;18.036;2023-03-29T14:42:29;7.75;;;3.83;;
72427;SDS011;60419;48.880;18.036;2023-03-29T14:45:15;7.55;;;3.20;;
72427;SDS011;60419;48.880;18.036;2023-03-29T14:48:02;6.32;;;3.28;;
72427;SDS011;60419;48.880;18.036;2023-03-29T14:50:48;7.20;;;3.47;;
72427;SDS011;60419;48.880;18.036;2023-03-29T14:53:34;7.10;;;3.30;;
72427;SDS011;60419;48.880;18.036;2023-03-29T14:56:22;6.25;;;3.45;;
72427;SDS011;60419;48.880;18.036;2023-03-29T14:59:23;7.35;;;3.10;;
72427;SDS011;60419;48.880;18.036;2023-03-29T15:03:13;4.93;;;2.72;;
72427;SDS011;60419;48.880;18.036;2023-03-29T15:11:23;6.65;;;3.03;;
72427;SDS011;60419;48.880;18.036;2023-03-29T15:14:14;6.13;;;3.22;;
72427;SDS011;60419;48.880;18.036;2023-03-29T15:17:05;9.50;;;3.10;;
72427;SDS011;60419;48.880;18.036;2023-03-29T15:20:12;7.40;;;3.20;;
72427;SDS011;60419;48.880;18.036;2023-03-29T15:23:07;5.88;;;2.70;;
72427;SDS011;60419;48.880;18.036;2023-03-29T15:25:57;5.80;;;2.85;;
72427;SDS011;60419;48.880;18.036;2023-03-29T15:29:00;4.80;;;2.88;;
72427;SDS011;60419;48.880;18.036;2023-03-29T15:34:42;5.45;;;2.72;;
72427;SDS011;60419;48.880;18.036;2023-03-29T15:37:28;6.18;;;2.88;;
72427;SDS011;60419;48.880;18.036;2023-03-29T15:40:17;5.32;;;2.45;;
72427;SDS011;60419;48.880;18.036;2023-03-29T15:43:06;5.07;;;3.05;;
72427;SDS011;60419;48.880;18.036;2023-03-29T15:45:51;5.22;;;2.65;;
72427;SDS011;60419;48.880;18.036;2023-03-29T15:48:37;6.50;;;2.30;;
72427;SDS011;60419;48.880;18.036;2023-03-29T15:51:22;4.35;;;2.38;;
72427;SDS011;60419;48.880;18.036;2023-03-29T15:54:08;7.03;;;2.80;;
72427;SDS011;60419;48.880;18.036;2023-03-29T15:56:55;5.95;;;2.95;;
72427;SDS011;60419;48.880;18.036;2023-03-29T15:59:45;4.95;;;2.80;;
72427;SDS011;60419;48.880;18.036;2023-03-29T16:02:31;7.18;;;2.80;;
72427;SDS011;60419;48.880;18.036;2023-03-29T16:05:16;6.05;;;2.80;;
72427;SDS011;60419;48.880;18.036;2023-03-29T16:08:01;5.55;;;2.65;;
72427;SDS011;60419;48.880;18.036;2023-03-29T16:10:47;4.45;;;2.55;;
72427;SDS011;60419;48.880;18.036;2023-03-29T16:13:33;5.22;;;3.28;;
72427;SDS011;60419;48.880;18.036;2023-03-29T16:16:18;5.80;;;3.05;;
72427;SDS011;60419;48.880;18.036;2023-03-29T16:19:04;4.72;;;2.95;;
72427;SDS011;60419;48.880;18.036;2023-03-29T16:21:50;5.50;;;2.45;;
72427;SDS011;60419;48.880;18.036;2023-03-29T16:24:37;6.47;;;2.67;;
72427;SDS011;60419;48.880;18.036;2023-03-29T16:27:22;5.22;;;2.35;;
72427;SDS011;60419;48.880;18.036;2023-03-29T16:30:08;4.55;;;2.00;;
72427;SDS011;60419;48.880;18.036;2023-03-29T16:32:54;6.05;;;2.20;;
72427;SDS011;60419;48.880;18.036;2023-03-29T16:35:40;4.85;;;2.30;;
72427;SDS011;60419;48.880;18.036;2023-03-29T16:38:25;6.70;;;2.50;;
72427;SDS011;60419;48.880;18.036;2023-03-29T16:41:13;5.70;;;2.85;;
72427;SDS011;60419;48.880;18.036;2023-03-29T16:44:00;5.00;;;2.80;;
72427;SDS011;60419;48.880;18.036;2023-03-29T16:46:45;4.63;;;2.88;;
72427;SDS011;60419;48.880;18.036;2023-03-29T16:49:32;5.65;;;2.97;;
72427;SDS011;60419;48.880;18.036;2023-03-29T16:52:17;7.63;;;3.40;;
72427;SDS011;60419;48.880;18.036;2023-03-29T16:55:03;6.35;;;3.55;;
72427;SDS011;60419;48.880;18.036;2023-03-29T16:57:49;4.72;;;2.60;;
72427;SDS011;60419;48.880;18.036;2023-03-29T17:00:36;4.75;;;2.80;;
72427;SDS011;60419;48.880;18.036;2023-03-29T17:03:22;6.53;;;3.25;;
72427;SDS011;60419;48.880;18.036;2023-03-29T17:06:08;5.90;;;3.20;;
72427;SDS011;60419;48.880;18.036;2023-03-29T17:08:54;7.78;;;3.97;;
72427;SDS011;60419;48.880;18.036;2023-03-29T17:11:40;6.72;;;3.63;;
72427;SDS011;60419;48.880;18.036;2023-03-29T17:14:25;7.43;;;3.90;;
72427;SDS011;60419;48.880;18.036;2023-03-29T17:17:11;6.95;;;3.47;;
72427;SDS011;60419;48.880;18.036;2023-03-29T17:19:56;6.05;;;2.92;;
72427;SDS011;60419;48.880;18.036;2023-03-29T17:22:41;4.95;;;2.80;;
72427;SDS011;60419;48.880;18.036;2023-03-29T17:25:27;5.45;;;3.10;;
72427;SDS011;60419;48.880;18.036;2023-03-29T17:28:12;6.10;;;3.00;;
72427;SDS011;60419;48.880;18.036;2023-03-29T17:31:01;6.85;;;3.42;;
72427;SDS011;60419;48.880;18.036;2023-03-29T17:33:47;5.47;;;3.00;;
72427;SDS011;60419;48.880;18.036;2023-03-29T17:36:35;5.38;;;2.40;;
72427;SDS011;60419;48.880;18.036;2023-03-29T17:39:21;6.20;;;2.33;;
72427;SDS011;60419;48.880;18.036;2023-03-29T17:42:09;6.65;;;2.40;;
72427;SDS011;60419;48.880;18.036;2023-03-29T17:44:54;4.13;;;2.25;;
72427;SDS011;60419;48.880;18.036;2023-03-29T17:47:40;4.60;;;2.20;;
72427;SDS011;60419;48.880;18.036;2023-03-29T17:50:25;9.40;;;2.42;;
72427;SDS011;60419;48.880;18.036;2023-03-29T17:53:11;6.43;;;2.50;;
72427;SDS011;60419;48.880;18.036;2023-03-29T17:55:57;6.00;;;2.50;;
72427;SDS011;60419;48.880;18.036;2023-03-29T17:58:42;6.35;;;3.05;;
72427;SDS011;60419;48.880;18.036;2023-03-29T18:01:28;6.93;;;3.53;;
72427;SDS011;60419;48.880;18.036;2023-03-29T18:04:13;5.60;;;3.28;;
72427;SDS011;60419;48.880;18.036;2023-03-29T18:06:59;6.55;;;3.25;;
72427;SDS011;60419;48.880;18.036;2023-03-29T18:09:47;6.45;;;3.22;;
72427;SDS011;60419;48.880;18.036;2023-03-29T18:12:34;4.68;;;2.42;;
72427;SDS011;60419;48.880;18.036;2023-03-29T18:15:20;4.78;;;2.15;;
72427;SDS011;60419;48.880;18.036;2023-03-29T18:18:05;5.05;;;2.35;;
72427;SDS011;60419;48.880;18.036;2023-03-29T18:20:51;7.78;;;3.22;;
72427;SDS011;60419;48.880;18.036;2023-03-29T18:23:36;4.18;;;2.35;;
72427;SDS011;60419;48.880;18.036;2023-03-29T18:26:23;4.70;;;2.53;;
72427;SDS011;60419;48.880;18.036;2023-03-29T18:29:09;5.78;;;2.28;;
72427;SDS011;60419;48.880;18.036;2023-03-29T18:31:55;4.82;;;3.00;;
72427;SDS011;60419;48.880;18.036;2023-03-29T18:34:40;5.07;;;2.53;;
72427;SDS011;60419;48.880;18.036;2023-03-29T18:37:25;5.75;;;2.38;;
72427;SDS011;60419;48.880;18.036;2023-03-29T18:40:11;4.35;;;2.50;;
72427;SDS011;60419;48.880;18.036;2023-03-29T18:42:56;3.92;;;2.33;;
72427;SDS011;60419;48.880;18.036;2023-03-29T18:45:42;6.03;;;2.70;;
72427;SDS011;60419;48.880;18.036;2023-03-29T18:48:28;4.63;;;2.70;;
72427;SDS011;60419;48.880;18.036;2023-03-29T18:51:13;6.93;;;4.35;;
72427;SDS011;60419;48.880;18.036;2023-03-29T18:53:59;4.00;;;2.40;;
72427;SDS011;60419;48.880;18.036;2023-03-29T18:56:45;5.90;;;2.85;;